Terminal Aerodrome Forecast
Issued by NWS Pueblo, CO

Home | Current Version | Previous Version | Text Only | Print | Product List | Glossary On
Versions: 1 2 3 4 5 6 7 8 9 10 11 12 13 14 15 16 17 18 19 20 21 22 23 24 25
000
FTUS45 KPUB 252327
TAFCOS
TAF
KCOS 252327Z 2600/2624 17007KT P6SM FEW100 SCT200
     FM260300 03007KT P6SM FEW200
     FM261800 18009KT P6SM FEW250
     FM262100 20012G22KT P6SM FEW250=

USA.gov is the U.S. government's official web portal to all federal, state and local government web resources and services.